Time;durP1;ratioP1;P1;durP2;ratioP2;P2;SDS_P1;SDS_P2;PMS_P1;PMS_P2;Temp;Humidity;BMP_temperature;BMP_pressure;BME280_temperature;BME280_humidity;BME280_pressure;Samples;Min_cycle;Max_cycle;Signal;HPM_P1;HPM_P2
2022/01/14 00:01:44;;;;;;;27.00;12.60;;;4.50;89.30;;;;;;935565;149;27300;-69
2022/01/14 00:04:11;;;;;;;34.63;13.73;;;4.50;89.30;;;;;;935841;149;27341;-71
2022/01/14 00:06:40;;;;;;;25.77;12.57;;;4.50;89.50;;;;;;934881;149;27878;-71
2022/01/14 00:09:09;;;;;;;32.93;13.20;;;4.50;89.50;;;;;;936255;149;27459;-69
2022/01/14 00:11:33;;;;;;;35.03;12.97;;;4.50;89.50;;;;;;937030;149;27802;-71
2022/01/14 00:16:32;;;;;;;25.43;13.37;;;4.50;89.50;;;;;;936621;149;27456;-70
2022/01/14 00:19:01;;;;;;;25.70;12.53;;;4.50;89.50;;;;;;936319;149;27298;-73
2022/01/14 00:21:28;;;;;;;39.37;13.10;;;4.50;89.40;;;;;;936035;149;27377;-69
2022/01/14 00:24:06;;;;;;;24.13;12.07;;;4.60;89.60;;;;;;935697;149;27423;-70
2022/01/14 00:31:57;;;;;;;18.00;11.63;;;4.50;89.60;;;;;;935828;149;27368;-71
2022/01/14 00:34:17;;;;;;;24.77;12.13;;;4.50;89.50;;;;;;937195;149;27515;-74
2022/01/14 00:36:44;;;;;;;19.23;11.37;;;4.50;89.60;;;;;;935578;149;27371;-70
2022/01/14 00:49:17;;;;;;;17.87;9.73;;;4.50;89.20;;;;;;934509;149;27409;-69
2022/01/14 01:08:37;;;;;;;22.83;12.40;;;4.40;89.60;;;;;;924422;152;28055;-69
2022/01/14 01:11:05;;;;;;;20.23;12.20;;;4.30;89.50;;;;;;925042;153;27427;-70
2022/01/14 01:13:33;;;;;;;21.73;11.93;;;4.30;89.60;;;;;;925099;152;27399;-72
2022/01/14 01:15:56;;;;;;;26.17;12.93;;;4.30;89.90;;;;;;939325;151;27868;-69
2022/01/14 01:18:22;;;;;;;20.43;13.57;;;4.30;89.80;;;;;;921392;154;27452;-71
2022/01/14 01:20:49;;;;;;;22.43;11.53;;;4.30;89.00;;;;;;921648;154;27463;-71
2022/01/14 01:23:15;;;;;;;23.13;12.80;;;4.40;90.00;;;;;;938434;149;27386;-70
2022/01/14 01:25:48;;;;;;;18.87;11.37;;;4.40;90.00;;;;;;941793;151;27309;-69
2022/01/14 01:28:11;;;;;;;19.93;12.03;;;4.40;90.00;;;;;;924562;151;27395;-70
2022/01/14 01:30:50;;;;;;;20.63;12.90;;;4.40;89.90;;;;;;939555;148;27441;-70
2022/01/14 01:33:05;;;;;;;29.80;13.23;;;4.40;89.80;;;;;;921299;154;27337;-69
2022/01/14 01:35:37;;;;;;;20.83;10.63;;;4.40;89.80;;;;;;919686;154;27281;-70
2022/01/14 01:38:03;;;;;;;24.73;12.40;;;4.40;89.60;;;;;;939443;148;27448;-73
2022/01/14 01:40:30;;;;;;;21.20;10.40;;;4.40;89.60;;;;;;940997;148;27446;-71
2022/01/14 01:42:57;;;;;;;24.40;10.67;;;4.40;89.50;;;;;;938359;148;27450;-70
2022/01/14 01:45:26;;;;;;;24.50;12.07;;;4.30;89.60;;;;;;938878;151;27290;-69
2022/01/14 01:47:50;;;;;;;23.37;12.30;;;4.30;89.60;;;;;;937949;148;28561;-72
2022/01/14 01:50:16;;;;;;;25.60;11.73;;;4.30;89.80;;;;;;939010;148;27405;-71
2022/01/14 01:52:43;;;;;;;23.50;13.20;;;4.30;89.80;;;;;;938866;148;27326;-71
2022/01/14 01:55:10;;;;;;;19.43;11.40;;;4.30;89.90;;;;;;917844;155;27367;-71
2022/01/14 01:57:36;;;;;;;25.73;10.87;;;4.30;89.80;;;;;;939447;148;27360;-71
2022/01/14 02:00:09;;;;;;;17.30;11.00;;;4.30;90.30;;;;;;936641;152;27310;-70
2022/01/14 02:02:35;;;;;;;14.40;10.20;;;4.30;90.00;;;;;;920158;155;27360;-71
2022/01/14 02:05:02;;;;;;;14.43;10.20;;;4.30;90.10;;;;;;933384;150;27383;-74
2022/01/14 02:07:28;;;;;;;21.33;10.40;;;4.30;90.20;;;;;;924963;150;27443;-72
2022/01/14 02:09:59;;;;;;;19.10;10.17;;;4.30;90.20;;;;;;935149;150;27437;-70
2022/01/14 02:12:35;;;;;;;14.30;10.57;;;4.30;90.20;;;;;;935498;150;27456;-69
2022/01/14 02:15:09;;;;;;;19.87;10.63;;;4.30;90.20;;;;;;934352;150;27422;-74
2022/01/14 02:17:34;;;;;;;21.87;9.93;;;4.30;90.20;;;;;;933425;150;27963;-71
2022/01/14 02:22:52;;;;;;;18.77;9.87;;;4.30;90.10;;;;;;933260;150;27304;-69
2022/01/14 02:25:28;;;;;;;20.67;8.97;;;4.30;90.10;;;;;;933363;150;27368;-74
2022/01/14 02:27:45;;;;;;;19.37;10.53;;;4.30;90.10;;;;;;933023;149;28957;-69
2022/01/14 02:30:11;;;;;;;24.13;10.47;;;4.30;89.70;;;;;;934980;149;27382;-71
2022/01/14 02:32:39;;;;;;;25.73;12.23;;;4.30;90.20;;;;;;934574;150;27336;-69
2022/01/14 02:35:04;;;;;;;18.50;10.10;;;4.30;90.20;;;;;;934896;150;27425;-69
2022/01/14 02:37:31;;;;;;;20.33;10.57;;;4.20;90.20;;;;;;933563;150;27345;-73
2022/01/14 02:39:58;;;;;;;18.07;10.53;;;4.20;90.20;;;;;;933798;150;27396;-71
2022/01/14 02:42:24;;;;;;;26.97;10.97;;;4.20;90.30;;;;;;933173;150;27908;-72
2022/01/14 02:44:56;;;;;;;19.47;9.60;;;4.20;90.30;;;;;;934728;150;27356;-72
2022/01/14 02:47:17;;;;;;;22.60;10.37;;;4.20;90.30;;;;;;934378;150;27312;-69
2022/01/14 02:49:47;;;;;;;24.77;10.00;;;4.20;90.30;;;;;;935000;150;27350;-71
2022/01/14 02:52:13;;;;;;;18.77;10.40;;;4.20;90.50;;;;;;934352;150;27503;-69
2022/01/14 02:55:01;;;;;;;25.20;10.33;;;4.20;90.50;;;;;;935077;150;27389;-71
2022/01/14 02:57:07;;;;;;;28.20;10.90;;;4.20;90.60;;;;;;934058;150;27372;-70
2022/01/14 02:59:33;;;;;;;21.17;10.63;;;4.20;90.60;;;;;;934830;150;27252;-69
2022/01/14 03:02:00;;;;;;;15.20;10.60;;;4.20;90.60;;;;;;934407;150;27788;-69
2022/01/14 03:04:26;;;;;;;17.77;9.63;;;4.10;90.60;;;;;;934385;150;27355;-73
2022/01/14 03:06:56;;;;;;;20.93;8.97;;;4.20;90.70;;;;;;934860;150;27503;-73
2022/01/14 03:09:22;;;;;;;18.93;10.33;;;4.10;90.70;;;;;;935115;150;27734;-73
2022/01/14 03:11:55;;;;;;;18.73;9.43;;;4.10;90.70;;;;;;935111;150;28495;-73
2022/01/14 03:14:24;;;;;;;18.17;10.13;;;4.10;90.70;;;;;;934864;150;27698;-75
2022/01/14 03:16:48;;;;;;;17.63;9.43;;;4.10;90.60;;;;;;935442;150;27904;-75
2022/01/14 03:19:21;;;;;;;17.40;10.30;;;4.10;90.70;;;;;;935042;150;27877;-75
2022/01/14 03:21:42;;;;;;;27.47;10.47;;;4.10;90.70;;;;;;933211;150;27466;-75
2022/01/14 03:24:23;;;;;;;16.03;8.57;;;4.10;90.90;;;;;;932299;150;27397;-75
2022/01/14 03:26:46;;;;;;;15.63;9.67;;;4.10;90.70;;;;;;933889;150;27288;-75
2022/01/14 03:29:13;;;;;;;20.67;10.10;;;4.10;90.80;;;;;;933920;150;27374;-73
2022/01/14 03:31:39;;;;;;;17.43;9.83;;;4.10;90.70;;;;;;933033;150;27881;-73
2022/01/14 03:34:06;;;;;;;17.47;9.53;;;4.10;90.70;;;;;;934472;150;27376;-73
2022/01/14 03:36:32;;;;;;;18.93;10.27;;;4.10;90.60;;;;;;932921;150;27331;-73
2022/01/14 03:38:59;;;;;;;26.07;10.33;;;4.10;90.60;;;;;;935076;150;27379;-73
2022/01/14 03:41:26;;;;;;;22.27;10.37;;;4.10;90.50;;;;;;935109;150;27724;-73
2022/01/14 03:43:52;;;;;;;22.53;10.37;;;4.00;90.50;;;;;;937505;150;27594;-73
2022/01/14 03:46:19;;;;;;;20.27;10.03;;;4.00;90.50;;;;;;936800;150;27778;-73
2022/01/14 03:48:45;;;;;;;15.63;9.57;;;4.00;90.50;;;;;;934424;150;27343;-72
2022/01/14 03:51:12;;;;;;;18.50;10.07;;;3.90;90.50;;;;;;935727;150;27416;-73
2022/01/14 03:53:39;;;;;;;17.73;9.90;;;3.90;90.60;;;;;;934325;150;27372;-73
2022/01/14 03:56:05;;;;;;;20.57;11.40;;;3.90;90.70;;;;;;935332;150;27383;-74
2022/01/14 03:58:32;;;;;;;19.77;9.63;;;3.90;90.70;;;;;;934004;150;28761;-75
2022/01/14 04:00:58;;;;;;;18.90;10.23;;;3.90;90.80;;;;;;934410;150;27331;-76
2022/01/14 04:03:25;;;;;;;18.67;9.43;;;3.90;90.80;;;;;;934641;150;27324;-75
2022/01/14 04:05:51;;;;;;;18.20;8.23;;;3.90;90.90;;;;;;933496;150;27470;-75
2022/01/14 04:08:18;;;;;;;15.50;9.37;;;3.90;91.00;;;;;;934681;150;27553;-75
2022/01/14 04:10:46;;;;;;;13.50;8.57;;;3.90;91.00;;;;;;942967;149;27365;-75
2022/01/14 04:13:16;;;;;;;15.73;8.50;;;3.90;91.00;;;;;;940635;149;27334;-75
2022/01/14 04:15:38;;;;;;;17.13;9.23;;;3.90;91.00;;;;;;955534;146;28004;-74
2022/01/14 04:18:07;;;;;;;17.67;9.23;;;3.90;91.00;;;;;;956558;146;27864;-75
2022/01/14 04:20:34;;;;;;;18.77;9.10;;;3.90;91.00;;;;;;957898;146;27374;-75
2022/01/14 04:23:00;;;;;;;16.53;8.70;;;3.90;91.10;;;;;;956804;146;27783;-75
2022/01/14 04:25:27;;;;;;;26.13;9.87;;;3.90;91.10;;;;;;957664;146;27301;-75
2022/01/14 04:27:53;;;;;;;18.70;9.43;;;3.90;91.10;;;;;;955671;146;27354;-75
2022/01/14 04:30:20;;;;;;;19.20;9.17;;;3.90;91.00;;;;;;957486;146;27345;-76
2022/01/14 04:32:47;;;;;;;23.50;9.97;;;3.90;91.00;;;;;;956637;146;27360;-76
2022/01/14 04:35:13;;;;;;;13.53;8.27;;;3.90;91.00;;;;;;947375;149;27379;-75
2022/01/14 04:37:40;;;;;;;27.70;9.03;;;3.90;91.00;;;;;;940917;149;27307;-73
2022/01/14 04:40:06;;;;;;;16.70;8.70;;;3.90;91.00;;;;;;946221;149;27240;-73
2022/01/14 04:42:37;;;;;;;24.43;10.63;;;3.90;91.00;;;;;;946994;150;27341;-73
2022/01/14 04:45:03;;;;;;;21.20;9.77;;;3.90;91.00;;;;;;948102;149;27335;-73
2022/01/14 04:47:43;;;;;;;21.83;9.30;;;3.90;91.10;;;;;;947788;148;27343;-73
2022/01/14 04:49:56;;;;;;;15.17;8.90;;;3.90;91.00;;;;;;945326;149;27363;-73
2022/01/14 04:52:23;;;;;;;24.87;10.77;;;3.90;91.00;;;;;;945513;150;27352;-73
2022/01/14 04:54:49;;;;;;;22.83;10.40;;;3.90;91.10;;;;;;946762;148;27310;-73
2022/01/14 04:57:16;;;;;;;16.57;9.17;;;3.90;91.10;;;;;;947064;150;27447;-73
2022/01/14 04:59:46;;;;;;;22.33;10.00;;;3.90;91.10;;;;;;946314;150;27440;-73
2022/01/14 05:02:11;;;;;;;23.33;9.60;;;3.90;91.10;;;;;;948126;150;27390;-73
2022/01/14 05:04:39;;;;;;;24.03;11.07;;;3.90;91.00;;;;;;948500;148;27936;-73
2022/01/14 05:07:04;;;;;;;29.33;10.33;;;3.80;90.90;;;;;;947737;149;27330;-73
2022/01/14 05:09:38;;;;;;;25.60;9.67;;;3.80;90.80;;;;;;947245;150;27397;-73
2022/01/14 05:12:05;;;;;;;14.53;8.87;;;3.80;90.60;;;;;;934080;151;27473;-73
2022/01/14 05:14:24;;;;;;;20.13;9.50;;;3.80;90.70;;;;;;931403;150;27443;-73
2022/01/14 05:16:51;;;;;;;19.37;8.43;;;3.70;90.70;;;;;;934261;152;27352;-73
2022/01/14 05:19:17;;;;;;;18.13;8.87;;;3.70;90.80;;;;;;933539;151;27318;-73
2022/01/14 05:21:45;;;;;;;17.80;9.73;;;3.70;90.80;;;;;;936785;152;27352;-73
2022/01/14 05:24:11;;;;;;;13.13;8.80;;;3.70;90.90;;;;;;934440;149;27340;-73
2022/01/14 05:26:37;;;;;;;13.77;9.80;;;3.70;90.90;;;;;;933145;152;27317;-73
2022/01/14 05:29:04;;;;;;;13.20;9.20;;;3.70;91.10;;;;;;933153;150;27385;-73
2022/01/14 05:31:40;;;;;;;15.70;9.33;;;3.60;91.10;;;;;;935094;150;27407;-73
2022/01/14 05:34:06;;;;;;;10.93;8.17;;;3.70;91.10;;;;;;935398;151;27265;-74
2022/01/14 05:36:33;;;;;;;15.27;9.47;;;3.60;91.10;;;;;;935936;152;27416;-73
2022/01/14 05:38:59;;;;;;;21.47;9.60;;;3.70;91.20;;;;;;934478;152;27445;-73
2022/01/14 05:41:26;;;;;;;16.33;8.90;;;3.60;91.10;;;;;;934159;151;27804;-73
2022/01/14 05:43:52;;;;;;;20.47;9.70;;;3.70;91.10;;;;;;934877;152;27330;-72
2022/01/14 05:46:19;;;;;;;15.53;9.43;;;3.60;91.10;;;;;;934901;151;27285;-73
2022/01/14 05:48:46;;;;;;;20.87;10.57;;;3.60;91.00;;;;;;933257;152;27366;-73
2022/01/14 05:51:12;;;;;;;12.13;8.43;;;3.60;90.90;;;;;;934201;151;27447;-72
2022/01/14 05:53:39;;;;;;;22.80;10.70;;;3.60;90.90;;;;;;934660;152;27333;-73
2022/01/14 05:56:05;;;;;;;22.23;10.40;;;3.60;90.90;;;;;;932844;152;27252;-73
2022/01/14 05:58:35;;;;;;;16.53;10.30;;;3.60;90.90;;;;;;934726;152;27341;-73
2022/01/14 06:01:01;;;;;;;11.70;8.77;;;3.50;90.80;;;;;;932794;152;27366;-72
2022/01/14 06:03:28;;;;;;;16.83;9.47;;;3.50;90.80;;;;;;934075;152;27360;-73
2022/01/14 06:05:57;;;;;;;15.13;9.77;;;3.50;90.90;;;;;;934921;150;27360;-73
2022/01/14 06:08:24;;;;;;;14.07;8.70;;;3.50;91.00;;;;;;934199;150;27435;-73
2022/01/14 06:10:51;;;;;;;13.23;9.07;;;3.40;91.10;;;;;;934458;149;27348;-73
2022/01/14 06:13:17;;;;;;;12.77;9.30;;;3.40;91.20;;;;;;936941;151;27336;-73
2022/01/14 06:15:44;;;;;;;15.00;9.00;;;3.40;91.30;;;;;;934115;150;27906;-73
2022/01/14 06:18:10;;;;;;;19.93;10.10;;;3.50;91.50;;;;;;934673;152;27364;-73
2022/01/14 06:20:37;;;;;;;16.83;8.60;;;3.50;91.60;;;;;;934788;152;27321;-73
2022/01/14 06:23:04;;;;;;;12.07;8.70;;;3.50;91.60;;;;;;932868;150;27331;-73
2022/01/14 06:25:30;;;;;;;21.57;9.93;;;3.50;91.60;;;;;;935593;150;27344;-73
2022/01/14 06:27:57;;;;;;;13.80;9.33;;;3.50;91.60;;;;;;934971;151;27361;-72
2022/01/14 06:30:23;;;;;;;31.53;10.37;;;3.50;91.60;;;;;;935598;149;27317;-72
2022/01/14 06:32:53;;;;;;;12.30;7.77;;;3.60;91.50;;;;;;935687;152;27328;-73
2022/01/14 06:35:19;;;;;;;15.57;8.93;;;3.60;91.50;;;;;;934867;150;27340;-73
2022/01/14 06:37:46;;;;;;;15.97;8.70;;;3.60;91.60;;;;;;934823;150;27355;-73
2022/01/14 06:40:12;;;;;;;19.07;9.33;;;3.60;91.60;;;;;;934749;151;27340;-73
2022/01/14 06:42:42;;;;;;;13.67;8.00;;;3.60;91.70;;;;;;934487;152;27434;-73
2022/01/14 06:45:09;;;;;;;30.83;10.93;;;3.60;91.70;;;;;;933975;150;27387;-73
2022/01/14 06:47:35;;;;;;;14.07;8.50;;;3.60;91.70;;;;;;935127;152;27339;-73
2022/01/14 06:50:02;;;;;;;25.93;9.20;;;3.60;91.80;;;;;;933536;152;27328;-73
2022/01/14 06:52:28;;;;;;;12.23;8.20;;;3.70;91.80;;;;;;933615;152;27389;-73
2022/01/14 06:54:55;;;;;;;14.40;9.37;;;3.70;91.80;;;;;;935158;152;27373;-73
2022/01/14 06:57:24;;;;;;;31.37;10.20;;;3.70;91.90;;;;;;934003;151;27736;-73
2022/01/14 06:59:48;;;;;;;17.17;9.37;;;3.70;91.90;;;;;;933724;152;27296;-73
2022/01/14 07:02:17;;;;;;;13.00;8.87;;;3.70;91.90;;;;;;934096;151;27321;-73
2022/01/14 07:04:46;;;;;;;24.97;10.27;;;3.70;91.90;;;;;;933213;151;27330;-73
2022/01/14 07:07:13;;;;;;;24.53;10.17;;;3.70;91.80;;;;;;932924;152;28006;-73
2022/01/14 07:09:56;;;;;;;25.83;10.40;;;3.70;92.00;;;;;;934234;149;27320;-73
2022/01/14 07:12:06;;;;;;;20.93;10.30;;;3.80;91.80;;;;;;940885;151;27484;-73
2022/01/14 07:14:36;;;;;;;15.70;8.90;;;3.70;91.80;;;;;;944024;151;27365;-73
2022/01/14 07:17:03;;;;;;;17.57;9.70;;;3.70;91.80;;;;;;942864;151;27367;-73
2022/01/14 07:19:29;;;;;;;16.43;10.00;;;3.80;91.90;;;;;;942173;151;27451;-73
2022/01/14 07:21:55;;;;;;;16.10;10.53;;;3.80;92.00;;;;;;944131;148;27307;-73
2022/01/14 07:24:22;;;;;;;15.00;10.00;;;3.80;92.00;;;;;;942519;151;27363;-74
2022/01/14 07:26:50;;;;;;;17.77;10.63;;;3.80;92.10;;;;;;941828;150;27501;-73
2022/01/14 07:29:16;;;;;;;18.67;10.70;;;3.80;92.10;;;;;;942766;151;27343;-73
2022/01/14 07:31:42;;;;;;;16.53;10.83;;;3.90;92.10;;;;;;942477;150;27245;-73
2022/01/14 07:34:08;;;;;;;19.57;12.40;;;3.90;92.10;;;;;;942848;150;27340;-73
2022/01/14 07:36:35;;;;;;;13.97;10.23;;;3.90;92.10;;;;;;941959;150;27347;-73
2022/01/14 07:39:02;;;;;;;20.70;11.67;;;4.00;92.00;;;;;;943950;150;27356;-73
2022/01/14 07:41:28;;;;;;;13.03;9.83;;;4.00;91.90;;;;;;942875;151;27267;-73
2022/01/14 07:43:58;;;;;;;17.27;10.93;;;4.00;91.80;;;;;;942321;151;27359;-73
2022/01/14 07:46:24;;;;;;;21.87;11.00;;;4.00;91.80;;;;;;943030;150;27347;-73
2022/01/14 07:48:51;;;;;;;23.77;11.37;;;4.00;91.80;;;;;;943241;150;27346;-73
2022/01/14 07:51:17;;;;;;;21.57;12.03;;;4.00;91.80;;;;;;942139;150;27363;-73
2022/01/14 07:53:44;;;;;;;16.33;9.43;;;4.00;91.80;;;;;;942585;151;27297;-73
2022/01/14 07:56:13;;;;;;;20.07;10.97;;;4.00;91.90;;;;;;940752;150;27398;-73
2022/01/14 07:58:37;;;;;;;18.43;12.60;;;4.00;92.10;;;;;;940956;151;27392;-73
2022/01/14 08:01:04;;;;;;;18.93;11.30;;;4.00;92.20;;;;;;943107;151;27392;-73
2022/01/14 08:03:30;;;;;;;14.23;10.53;;;4.00;92.20;;;;;;944674;151;27380;-73
2022/01/14 08:05:58;;;;;;;23.40;11.40;;;4.10;92.30;;;;;;944621;151;28765;-73
2022/01/14 08:08:28;;;;;;;28.77;12.17;;;4.10;92.30;;;;;;941657;150;27284;-73
2022/01/14 08:10:53;;;;;;;17.03;10.40;;;4.10;92.40;;;;;;943404;150;27268;-73
2022/01/14 08:13:19;;;;;;;16.60;10.60;;;4.10;92.30;;;;;;942243;149;27432;-74
2022/01/14 08:15:46;;;;;;;23.93;11.27;;;4.20;92.40;;;;;;941935;150;27414;-73
2022/01/14 08:18:13;;;;;;;23.63;12.20;;;4.20;92.40;;;;;;943930;151;27444;-73
2022/01/14 08:20:45;;;;;;;16.87;11.13;;;4.30;92.40;;;;;;942459;151;27407;-73
2022/01/14 08:23:12;;;;;;;16.30;10.53;;;4.30;92.40;;;;;;942823;150;27315;-73
2022/01/14 08:25:38;;;;;;;20.37;12.00;;;4.30;92.40;;;;;;943024;150;27399;-73
2022/01/14 08:28:05;;;;;;;17.87;11.10;;;4.40;92.60;;;;;;942147;151;27360;-73
2022/01/14 08:30:31;;;;;;;17.50;11.00;;;4.40;92.60;;;;;;943778;151;27306;-73
2022/01/14 08:32:58;;;;;;;15.13;10.67;;;4.50;92.60;;;;;;943737;150;27265;-73
2022/01/14 08:35:25;;;;;;;17.07;11.60;;;4.50;92.60;;;;;;944304;150;27304;-74
2022/01/14 08:37:51;;;;;;;13.17;9.57;;;4.60;92.50;;;;;;943699;151;27436;-74
2022/01/14 08:40:18;;;;;;;14.57;10.10;;;4.60;92.40;;;;;;942590;151;27338;-74
2022/01/14 08:42:51;;;;;;;14.10;10.13;;;4.70;92.30;;;;;;942545;150;28153;-73
2022/01/14 08:45:11;;;;;;;14.33;9.70;;;4.70;92.20;;;;;;944348;150;27379;-73
2022/01/14 08:47:38;;;;;;;13.30;10.23;;;4.80;92.10;;;;;;943483;151;27321;-73
2022/01/14 08:50:05;;;;;;;14.03;9.73;;;4.80;92.00;;;;;;944010;151;27296;-73
2022/01/14 08:52:31;;;;;;;14.80;11.10;;;4.80;92.00;;;;;;942045;150;27384;-73
2022/01/14 08:54:57;;;;;;;15.50;11.07;;;4.80;91.90;;;;;;942373;151;27766;-73
2022/01/14 08:57:24;;;;;;;13.77;10.07;;;4.90;91.80;;;;;;943875;151;27303;-74
2022/01/14 08:59:51;;;;;;;16.57;11.20;;;4.90;91.70;;;;;;942938;151;27349;-73
2022/01/14 09:02:17;;;;;;;14.97;10.40;;;4.80;91.50;;;;;;944181;151;27243;-73
2022/01/14 09:04:44;;;;;;;15.53;11.17;;;4.80;91.50;;;;;;942669;151;27347;-73
2022/01/14 09:07:10;;;;;;;16.30;11.13;;;4.90;91.50;;;;;;942982;151;27351;-74
2022/01/14 09:09:37;;;;;;;14.27;10.80;;;4.90;91.60;;;;;;945048;151;27252;-73
2022/01/14 09:12:03;;;;;;;14.40;10.27;;;4.90;91.60;;;;;;945539;148;27306;-73
2022/01/14 09:14:30;;;;;;;18.27;12.20;;;4.90;91.80;;;;;;943428;150;27331;-73
2022/01/14 09:16:57;;;;;;;15.97;10.87;;;4.90;91.80;;;;;;943469;150;27330;-73
2022/01/14 09:19:23;;;;;;;17.33;11.90;;;5.00;92.00;;;;;;944461;151;27453;-73
2022/01/14 09:21:50;;;;;;;14.93;10.83;;;5.00;91.70;;;;;;943161;150;27416;-74
2022/01/14 09:24:16;;;;;;;17.10;11.10;;;5.00;91.60;;;;;;944334;151;27381;-73
2022/01/14 09:26:46;;;;;;;16.37;11.83;;;5.10;91.70;;;;;;944242;150;27304;-74
2022/01/14 09:29:12;;;;;;;16.90;11.90;;;5.10;91.70;;;;;;944984;150;27323;-74
2022/01/14 09:31:39;;;;;;;17.87;12.63;;;5.10;91.70;;;;;;945410;150;27336;-73
2022/01/14 09:34:06;;;;;;;19.07;14.13;;;5.10;91.60;;;;;;946288;151;27941;-73
2022/01/14 09:36:32;;;;;;;17.53;12.97;;;5.20;91.50;;;;;;944968;150;27399;-73
2022/01/14 09:38:59;;;;;;;20.13;12.63;;;5.20;91.40;;;;;;945354;150;27827;-73
2022/01/14 09:41:25;;;;;;;17.27;12.73;;;5.20;91.40;;;;;;944954;150;27329;-73
2022/01/14 09:43:52;;;;;;;17.87;12.40;;;5.30;91.50;;;;;;944477;148;27386;-73
2022/01/14 09:46:18;;;;;;;17.07;13.00;;;5.30;91.50;;;;;;942651;150;27465;-73
2022/01/14 09:48:45;;;;;;;19.73;12.97;;;5.30;91.50;;;;;;943840;151;27317;-74
2022/01/14 09:51:12;;;;;;;21.27;12.83;;;5.30;91.60;;;;;;942118;148;27340;-73
2022/01/14 09:53:38;;;;;;;19.97;13.43;;;5.40;91.70;;;;;;943460;151;27288;-73
2022/01/14 09:56:05;;;;;;;18.23;12.80;;;5.50;91.70;;;;;;943139;151;27496;-73
2022/01/14 09:58:36;;;;;;;22.37;13.60;;;5.60;91.80;;;;;;940112;151;27440;-73
2022/01/14 10:01:07;;;;;;;21.87;13.43;;;5.60;91.70;;;;;;942213;151;27352;-73
2022/01/14 10:03:34;;;;;;;17.70;12.37;;;5.70;91.70;;;;;;942366;151;27466;-74
2022/01/14 10:06:00;;;;;;;17.97;12.87;;;5.80;91.50;;;;;;942077;150;27395;-73
2022/01/14 10:08:28;;;;;;;19.27;14.00;;;5.80;91.50;;;;;;943245;150;27276;-73
2022/01/14 10:10:58;;;;;;;19.17;13.07;;;5.90;91.40;;;;;;943191;150;27776;-73
2022/01/14 10:13:23;;;;;;;19.97;14.07;;;5.90;91.40;;;;;;944478;150;27316;-73
2022/01/14 10:15:52;;;;;;;21.17;13.77;;;6.00;91.30;;;;;;947361;148;27410;-73
2022/01/14 10:18:18;;;;;;;18.20;12.77;;;6.10;91.30;;;;;;947670;148;27410;-73
2022/01/14 10:20:48;;;;;;;19.33;13.87;;;6.10;91.20;;;;;;948509;147;27342;-73
2022/01/14 10:23:15;;;;;;;20.80;13.93;;;6.20;91.10;;;;;;948685;149;27345;-74
2022/01/14 10:25:41;;;;;;;18.73;14.33;;;6.20;91.00;;;;;;947677;150;27346;-73
2022/01/14 10:28:20;;;;;;;22.10;14.20;;;6.30;90.90;;;;;;946544;147;27422;-73
2022/01/14 10:30:47;;;;;;;21.60;13.50;;;6.40;90.80;;;;;;946840;148;27340;-73
2022/01/14 10:33:13;;;;;;;19.10;13.67;;;6.40;90.80;;;;;;947146;150;27346;-73
2022/01/14 10:35:41;;;;;;;20.87;14.17;;;6.50;90.80;;;;;;948258;150;27851;-73
2022/01/14 10:38:06;;;;;;;19.60;14.17;;;6.50;90.70;;;;;;947545;150;27331;-73
2022/01/14 10:40:34;;;;;;;19.93;13.73;;;6.60;90.60;;;;;;945636;148;27401;-73
2022/01/14 10:43:05;;;;;;;20.83;14.20;;;6.60;90.40;;;;;;945750;149;27311;-73
2022/01/14 10:45:32;;;;;;;22.37;14.70;;;6.70;90.30;;;;;;946381;148;27329;-73
2022/01/14 10:47:58;;;;;;;21.43;14.80;;;6.70;90.20;;;;;;949618;150;27426;-73
2022/01/14 10:50:37;;;;;;;21.47;14.47;;;6.70;90.20;;;;;;945454;150;27325;-74
2022/01/14 10:53:13;;;;;;;19.80;13.77;;;6.80;90.00;;;;;;947383;148;27426;-73
2022/01/14 10:55:42;;;;;;;18.67;13.00;;;6.80;89.80;;;;;;948733;149;27437;-73
2022/01/14 10:58:17;;;;;;;17.03;13.17;;;6.80;89.80;;;;;;946274;150;27333;-73
2022/01/14 11:00:44;;;;;;;18.80;13.50;;;6.80;89.80;;;;;;947242;150;27806;-73
2022/01/14 11:03:10;;;;;;;18.97;14.57;;;6.80;90.00;;;;;;946067;149;27279;-74
2022/01/14 11:05:40;;;;;;;18.30;14.17;;;6.90;90.00;;;;;;947352;148;27433;-73
2022/01/14 11:08:07;;;;;;;24.07;15.43;;;6.90;90.00;;;;;;946527;150;27346;-73
2022/01/14 11:10:33;;;;;;;21.30;15.13;;;6.90;90.00;;;;;;947080;148;27755;-73
2022/01/14 11:13:01;;;;;;;22.43;15.80;;;7.00;89.80;;;;;;946772;150;27431;-73
2022/01/14 11:15:26;;;;;;;21.83;15.13;;;7.00;89.50;;;;;;935495;150;27353;-73
2022/01/14 11:17:55;;;;;;;19.80;14.03;;;7.10;89.00;;;;;;935155;150;27324;-73
2022/01/14 11:20:24;;;;;;;18.40;14.03;;;7.10;88.90;;;;;;933735;150;27356;-73
2022/01/14 11:25:21;;;;;;;21.03;14.73;;;7.10;88.50;;;;;;917777;152;27330;-73
2022/01/14 11:27:53;;;;;;;19.13;13.90;;;7.10;88.60;;;;;;934999;151;27365;-73
2022/01/14 11:30:21;;;;;;;17.13;13.90;;;7.10;88.60;;;;;;934441;151;27324;-73
2022/01/14 11:32:55;;;;;;;18.60;14.47;;;7.10;88.50;;;;;;933498;152;27456;-73
2022/01/14 11:35:25;;;;;;;21.33;15.00;;;7.10;88.50;;;;;;933349;152;27423;-73
2022/01/14 11:37:51;;;;;;;18.93;13.90;;;7.20;88.70;;;;;;935185;151;27463;-73
2022/01/14 11:40:21;;;;;;;22.20;14.83;;;7.20;88.80;;;;;;933687;151;27418;-73
2022/01/14 11:42:50;;;;;;;20.47;14.83;;;7.20;88.90;;;;;;934888;151;27436;-73
2022/01/14 11:45:20;;;;;;;20.20;14.60;;;7.30;88.90;;;;;;933876;152;27382;-73
2022/01/14 11:47:47;;;;;;;19.93;14.50;;;7.30;88.90;;;;;;932392;152;27359;-73
2022/01/14 11:50:24;;;;;;;20.73;13.87;;;7.30;88.80;;;;;;935414;149;27331;-73
2022/01/14 11:52:50;;;;;;;20.23;14.97;;;7.40;88.90;;;;;;932444;152;27866;-73
2022/01/14 11:55:23;;;;;;;18.47;14.20;;;7.40;88.80;;;;;;934657;152;27292;-73
2022/01/14 11:57:52;;;;;;;20.10;14.50;;;7.50;88.70;;;;;;933376;151;27344;-73
2022/01/14 12:00:29;;;;;;;20.20;14.03;;;7.50;88.60;;;;;;933257;152;27839;-73
2022/01/14 12:02:54;;;;;;;20.87;14.77;;;7.60;88.60;;;;;;934526;152;27361;-73
2022/01/14 12:05:27;;;;;;;19.13;14.70;;;7.70;88.40;;;;;;934418;152;27278;-73
2022/01/14 12:08:03;;;;;;;21.87;16.17;;;7.70;88.00;;;;;;935291;152;27330;-73
2022/01/14 12:10:35;;;;;;;21.30;15.07;;;7.70;87.70;;;;;;935501;150;27344;-73
2022/01/14 12:16:03;;;;;;;20.47;16.00;;;7.80;87.40;;;;;;945404;150;27936;-73
2022/01/14 12:18:46;;;;;;;20.33;15.03;;;7.80;87.50;;;;;;947672;149;27326;-73
2022/01/14 12:21:13;;;;;;;23.23;16.20;;;7.90;87.40;;;;;;946985;147;27311;-73
2022/01/14 12:23:42;;;;;;;22.77;16.33;;;7.90;87.30;;;;;;948562;150;27385;-73
2022/01/14 12:26:17;;;;;;;24.50;17.57;;;8.00;87.20;;;;;;946301;150;27375;-73
2022/01/14 12:28:44;;;;;;;23.53;15.57;;;8.00;86.90;;;;;;947347;149;27499;-73
2022/01/14 12:31:11;;;;;;;22.57;16.13;;;8.10;86.70;;;;;;946599;150;27307;-74
2022/01/14 12:33:45;;;;;;;26.47;17.67;;;8.10;86.60;;;;;;947291;150;27375;-73
2022/01/14 12:36:13;;;;;;;23.50;16.77;;;8.10;86.50;;;;;;945996;150;27336;-73
2022/01/14 12:38:42;;;;;;;23.53;16.57;;;8.10;86.30;;;;;;946995;149;27441;-73
2022/01/14 12:41:15;;;;;;;21.77;16.13;;;8.20;86.10;;;;;;948010;150;27432;-73
2022/01/14 12:43:50;;;;;;;24.83;17.63;;;8.20;86.00;;;;;;948846;148;27314;-72
2022/01/14 12:46:51;;;;;;;26.23;18.37;;;8.20;86.00;;;;;;946560;150;27409;-73
2022/01/14 12:49:10;;;;;;;22.67;16.70;;;8.20;86.10;;;;;;946492;149;27421;-73
2022/01/14 12:51:36;;;;;;;24.53;17.00;;;8.20;85.90;;;;;;946976;150;27359;-73
2022/01/14 12:54:04;;;;;;;27.13;18.43;;;8.20;85.50;;;;;;947066;149;27342;-73
2022/01/14 12:56:30;;;;;;;25.83;18.23;;;8.30;85.30;;;;;;947738;150;27419;-73
2022/01/14 12:58:56;;;;;;;25.10;17.83;;;8.30;85.20;;;;;;947641;148;27444;-73
2022/01/14 13:01:29;;;;;;;25.50;17.80;;;8.30;85.10;;;;;;947889;149;27339;-73
2022/01/14 13:03:55;;;;;;;23.40;18.00;;;8.20;85.20;;;;;;946848;150;27437;-73
2022/01/14 13:06:22;;;;;;;22.43;16.17;;;8.20;85.20;;;;;;946754;148;27343;-72
2022/01/14 13:08:55;;;;;;;23.10;17.67;;;8.20;85.20;;;;;;947734;150;27319;-72
2022/01/14 13:11:21;;;;;;;24.63;17.23;;;8.30;85.30;;;;;;947478;150;27450;-73
2022/01/14 13:13:57;;;;;;;24.87;18.00;;;8.30;85.40;;;;;;946995;148;27699;-73
2022/01/14 13:16:24;;;;;;;26.37;19.10;;;8.30;85.40;;;;;;937148;150;27487;-73
2022/01/14 13:18:50;;;;;;;24.43;17.73;;;8.40;85.40;;;;;;933965;152;27461;-72
2022/01/14 13:21:17;;;;;;;23.57;16.20;;;8.40;85.40;;;;;;933839;152;27830;-72
2022/01/14 13:23:43;;;;;;;23.57;15.67;;;8.40;85.20;;;;;;935122;150;27772;-73
2022/01/14 13:26:10;;;;;;;23.13;17.20;;;8.50;85.10;;;;;;934196;150;27333;-74